sensor_id;sensor_type;location;lat;lon;timestamp;P1;durP1;ratioP1;P2;durP2;ratioP2
77322;SDS011;66384;51.052;9.850;2023-03-03T00:01:31;20.00;;;8.70;;
77322;SDS011;66384;51.052;9.850;2023-03-03T00:04:00;18.90;;;7.70;;
77322;SDS011;66384;51.052;9.850;2023-03-03T00:06:29;16.20;;;7.30;;
77322;SDS011;66384;51.052;9.850;2023-03-03T00:08:59;33.00;;;13.50;;
77322;SDS011;66384;51.052;9.850;2023-03-03T00:11:28;27.30;;;11.10;;
77322;SDS011;66384;51.052;9.850;2023-03-03T00:13:57;21.10;;;9.60;;
77322;SDS011;66384;51.052;9.850;2023-03-03T00:16:27;17.90;;;8.70;;
77322;SDS011;66384;51.052;9.850;2023-03-03T00:18:58;17.10;;;7.90;;
77322;SDS011;66384;51.052;9.850;2023-03-03T00:21:28;20.80;;;9.00;;
77322;SDS011;66384;51.052;9.850;2023-03-03T00:24:16;16.40;;;7.30;;
77322;SDS011;66384;51.052;9.850;2023-03-03T00:26:47;16.00;;;7.40;;
77322;SDS011;66384;51.052;9.850;2023-03-03T00:29:30;16.50;;;7.70;;
77322;SDS011;66384;51.052;9.850;2023-03-03T00:34:52;13.80;;;6.70;;
77322;SDS011;66384;51.052;9.850;2023-03-03T00:39:52;13.50;;;5.40;;
77322;SDS011;66384;51.052;9.850;2023-03-03T00:42:26;13.50;;;6.70;;
77322;SDS011;66384;51.052;9.850;2023-03-03T00:44:56;15.50;;;7.20;;
77322;SDS011;66384;51.052;9.850;2023-03-03T00:47:28;15.70;;;6.90;;
77322;SDS011;66384;51.052;9.850;2023-03-03T00:53:10;14.00;;;6.70;;
77322;SDS011;66384;51.052;9.850;2023-03-03T00:55:42;13.60;;;5.90;;
77322;SDS011;66384;51.052;9.850;2023-03-03T00:58:12;14.40;;;6.20;;
77322;SDS011;66384;51.052;9.850;2023-03-03T01:00:43;12.30;;;6.20;;
77322;SDS011;66384;51.052;9.850;2023-03-03T01:03:14;13.30;;;6.20;;
77322;SDS011;66384;51.052;9.850;2023-03-03T01:05:45;14.50;;;6.70;;
77322;SDS011;66384;51.052;9.850;2023-03-03T01:08:15;14.20;;;6.80;;
77322;SDS011;66384;51.052;9.850;2023-03-03T01:13:16;14.10;;;5.50;;
77322;SDS011;66384;51.052;9.850;2023-03-03T01:15:47;17.30;;;6.60;;
77322;SDS011;66384;51.052;9.850;2023-03-03T01:18:16;19.20;;;9.20;;
77322;SDS011;66384;51.052;9.850;2023-03-03T01:20:46;21.00;;;8.90;;
77322;SDS011;66384;51.052;9.850;2023-03-03T01:23:15;16.10;;;7.30;;
77322;SDS011;66384;51.052;9.850;2023-03-03T01:25:45;21.40;;;9.10;;
77322;SDS011;66384;51.052;9.850;2023-03-03T01:28:14;12.60;;;6.50;;
77322;SDS011;66384;51.052;9.850;2023-03-03T01:30:43;11.90;;;5.50;;
77322;SDS011;66384;51.052;9.850;2023-03-03T01:33:12;12.10;;;6.60;;
77322;SDS011;66384;51.052;9.850;2023-03-03T01:35:43;18.20;;;7.30;;
77322;SDS011;66384;51.052;9.850;2023-03-03T01:38:13;14.60;;;6.40;;
77322;SDS011;66384;51.052;9.850;2023-03-03T01:40:50;12.90;;;5.50;;
77322;SDS011;66384;51.052;9.850;2023-03-03T01:43:21;21.00;;;7.90;;
77322;SDS011;66384;51.052;9.850;2023-03-03T01:48:57;15.20;;;6.00;;
77322;SDS011;66384;51.052;9.850;2023-03-03T01:51:30;14.80;;;6.40;;
77322;SDS011;66384;51.052;9.850;2023-03-03T01:54:02;16.30;;;7.60;;
77322;SDS011;66384;51.052;9.850;2023-03-03T01:56:36;19.90;;;8.00;;
77322;SDS011;66384;51.052;9.850;2023-03-03T01:59:06;15.40;;;6.10;;
77322;SDS011;66384;51.052;9.850;2023-03-03T02:01:40;14.70;;;6.60;;
77322;SDS011;66384;51.052;9.850;2023-03-03T02:04:10;16.70;;;7.10;;
77322;SDS011;66384;51.052;9.850;2023-03-03T02:06:40;18.80;;;7.80;;
77322;SDS011;66384;51.052;9.850;2023-03-03T02:09:15;18.50;;;8.10;;
77322;SDS011;66384;51.052;9.850;2023-03-03T02:11:49;18.70;;;7.60;;
77322;SDS011;66384;51.052;9.850;2023-03-03T02:14:23;10.10;;;5.10;;
77322;SDS011;66384;51.052;9.850;2023-03-03T02:16:52;14.10;;;5.90;;
77322;SDS011;66384;51.052;9.850;2023-03-03T02:19:23;16.80;;;8.10;;
77322;SDS011;66384;51.052;9.850;2023-03-03T02:21:59;19.20;;;8.00;;
77322;SDS011;66384;51.052;9.850;2023-03-03T02:24:30;19.90;;;7.20;;
77322;SDS011;66384;51.052;9.850;2023-03-03T02:27:05;12.00;;;6.00;;
77322;SDS011;66384;51.052;9.850;2023-03-03T02:29:35;12.70;;;6.60;;
77322;SDS011;66384;51.052;9.850;2023-03-03T02:32:04;14.70;;;6.40;;
77322;SDS011;66384;51.052;9.850;2023-03-03T02:34:43;13.60;;;5.80;;
77322;SDS011;66384;51.052;9.850;2023-03-03T02:37:14;18.40;;;8.10;;
77322;SDS011;66384;51.052;9.850;2023-03-03T02:39:45;10.00;;;4.90;;
77322;SDS011;66384;51.052;9.850;2023-03-03T02:42:15;17.70;;;7.80;;
77322;SDS011;66384;51.052;9.850;2023-03-03T02:44:48;17.00;;;6.80;;
77322;SDS011;66384;51.052;9.850;2023-03-03T02:47:18;20.50;;;10.10;;
77322;SDS011;66384;51.052;9.850;2023-03-03T02:49:48;16.20;;;7.90;;
77322;SDS011;66384;51.052;9.850;2023-03-03T02:52:17;16.90;;;8.10;;
77322;SDS011;66384;51.052;9.850;2023-03-03T02:54:46;16.40;;;7.00;;
77322;SDS011;66384;51.052;9.850;2023-03-03T02:57:16;17.00;;;7.70;;
77322;SDS011;66384;51.052;9.850;2023-03-03T02:59:45;14.00;;;7.00;;
77322;SDS011;66384;51.052;9.850;2023-03-03T03:02:14;15.90;;;7.90;;
77322;SDS011;66384;51.052;9.850;2023-03-03T03:04:44;11.20;;;5.50;;
77322;SDS011;66384;51.052;9.850;2023-03-03T03:07:14;13.80;;;6.90;;
77322;SDS011;66384;51.052;9.850;2023-03-03T03:09:43;15.00;;;6.80;;
77322;SDS011;66384;51.052;9.850;2023-03-03T03:12:13;13.60;;;6.40;;
77322;SDS011;66384;51.052;9.850;2023-03-03T03:14:44;14.60;;;6.80;;
77322;SDS011;66384;51.052;9.850;2023-03-03T03:17:14;14.90;;;6.80;;
77322;SDS011;66384;51.052;9.850;2023-03-03T03:19:43;11.70;;;5.00;;
77322;SDS011;66384;51.052;9.850;2023-03-03T03:22:12;14.30;;;6.60;;
77322;SDS011;66384;51.052;9.850;2023-03-03T03:24:41;16.50;;;7.90;;
77322;SDS011;66384;51.052;9.850;2023-03-03T03:27:11;17.30;;;8.40;;
77322;SDS011;66384;51.052;9.850;2023-03-03T03:29:40;17.00;;;7.30;;
77322;SDS011;66384;51.052;9.850;2023-03-03T03:32:09;15.90;;;7.50;;
77322;SDS011;66384;51.052;9.850;2023-03-03T03:34:39;13.90;;;5.80;;
77322;SDS011;66384;51.052;9.850;2023-03-03T03:37:08;15.00;;;7.20;;
77322;SDS011;66384;51.052;9.850;2023-03-03T03:39:37;16.00;;;6.50;;
77322;SDS011;66384;51.052;9.850;2023-03-03T03:42:06;17.40;;;8.70;;
77322;SDS011;66384;51.052;9.850;2023-03-03T03:44:37;13.40;;;6.50;;
77322;SDS011;66384;51.052;9.850;2023-03-03T03:47:06;12.50;;;5.70;;
77322;SDS011;66384;51.052;9.850;2023-03-03T03:49:35;16.90;;;7.60;;
77322;SDS011;66384;51.052;9.850;2023-03-03T03:52:04;10.60;;;4.80;;
77322;SDS011;66384;51.052;9.850;2023-03-03T03:54:34;11.80;;;6.10;;
77322;SDS011;66384;51.052;9.850;2023-03-03T03:57:03;14.10;;;5.50;;
77322;SDS011;66384;51.052;9.850;2023-03-03T03:59:32;10.20;;;4.50;;
77322;SDS011;66384;51.052;9.850;2023-03-03T04:02:01;10.90;;;5.40;;
77322;SDS011;66384;51.052;9.850;2023-03-03T04:04:31;14.70;;;5.60;;
77322;SDS011;66384;51.052;9.850;2023-03-03T04:07:00;14.50;;;6.70;;
77322;SDS011;66384;51.052;9.850;2023-03-03T04:09:29;11.70;;;5.20;;
77322;SDS011;66384;51.052;9.850;2023-03-03T04:11:58;13.10;;;5.70;;
77322;SDS011;66384;51.052;9.850;2023-03-03T04:14:28;13.90;;;6.00;;
77322;SDS011;66384;51.052;9.850;2023-03-03T04:16:57;12.60;;;5.70;;
77322;SDS011;66384;51.052;9.850;2023-03-03T04:19:26;13.40;;;6.10;;
77322;SDS011;66384;51.052;9.850;2023-03-03T04:21:55;15.10;;;6.50;;
77322;SDS011;66384;51.052;9.850;2023-03-03T04:24:25;14.50;;;6.60;;
77322;SDS011;66384;51.052;9.850;2023-03-03T04:26:54;11.80;;;5.10;;
77322;SDS011;66384;51.052;9.850;2023-03-03T04:29:24;12.30;;;5.10;;
77322;SDS011;66384;51.052;9.850;2023-03-03T04:31:53;13.10;;;5.50;;
77322;SDS011;66384;51.052;9.850;2023-03-03T04:34:22;12.10;;;5.90;;
77322;SDS011;66384;51.052;9.850;2023-03-03T04:36:52;13.80;;;6.10;;
77322;SDS011;66384;51.052;9.850;2023-03-03T04:39:21;12.40;;;6.10;;
77322;SDS011;66384;51.052;9.850;2023-03-03T04:41:51;12.70;;;6.20;;
77322;SDS011;66384;51.052;9.850;2023-03-03T04:44:20;14.20;;;5.80;;
77322;SDS011;66384;51.052;9.850;2023-03-03T04:46:50;11.30;;;5.30;;
77322;SDS011;66384;51.052;9.850;2023-03-03T04:49:19;13.70;;;5.90;;
77322;SDS011;66384;51.052;9.850;2023-03-03T04:51:48;12.80;;;6.20;;
77322;SDS011;66384;51.052;9.850;2023-03-03T04:54:18;12.50;;;5.70;;
77322;SDS011;66384;51.052;9.850;2023-03-03T04:56:47;15.00;;;5.80;;
77322;SDS011;66384;51.052;9.850;2023-03-03T04:59:16;13.90;;;5.60;;
77322;SDS011;66384;51.052;9.850;2023-03-03T05:01:45;12.20;;;5.10;;
77322;SDS011;66384;51.052;9.850;2023-03-03T05:04:16;14.80;;;5.60;;
77322;SDS011;66384;51.052;9.850;2023-03-03T05:06:45;11.90;;;4.80;;
77322;SDS011;66384;51.052;9.850;2023-03-03T05:09:14;11.20;;;5.50;;
77322;SDS011;66384;51.052;9.850;2023-03-03T05:11:44;12.00;;;5.60;;
77322;SDS011;66384;51.052;9.850;2023-03-03T05:14:13;14.70;;;5.50;;
77322;SDS011;66384;51.052;9.850;2023-03-03T05:16:42;14.10;;;5.90;;
77322;SDS011;66384;51.052;9.850;2023-03-03T05:19:12;12.00;;;5.90;;
77322;SDS011;66384;51.052;9.850;2023-03-03T05:21:41;13.10;;;6.00;;
77322;SDS011;66384;51.052;9.850;2023-03-03T05:24:10;15.60;;;6.00;;
77322;SDS011;66384;51.052;9.850;2023-03-03T05:26:40;13.50;;;6.20;;
77322;SDS011;66384;51.052;9.850;2023-03-03T05:29:10;11.30;;;5.10;;
77322;SDS011;66384;51.052;9.850;2023-03-03T05:31:39;12.00;;;4.70;;
77322;SDS011;66384;51.052;9.850;2023-03-03T05:34:08;10.30;;;4.70;;
77322;SDS011;66384;51.052;9.850;2023-03-03T05:36:37;11.60;;;5.40;;
77322;SDS011;66384;51.052;9.850;2023-03-03T05:39:07;12.60;;;5.40;;
77322;SDS011;66384;51.052;9.850;2023-03-03T05:41:36;11.20;;;4.80;;
77322;SDS011;66384;51.052;9.850;2023-03-03T05:44:05;12.30;;;4.50;;
77322;SDS011;66384;51.052;9.850;2023-03-03T05:46:34;13.30;;;5.50;;
77322;SDS011;66384;51.052;9.850;2023-03-03T05:49:04;10.20;;;4.70;;
77322;SDS011;66384;51.052;9.850;2023-03-03T05:51:33;10.90;;;4.90;;
77322;SDS011;66384;51.052;9.850;2023-03-03T05:54:03;11.00;;;5.00;;
77322;SDS011;66384;51.052;9.850;2023-03-03T05:56:32;13.30;;;6.00;;
77322;SDS011;66384;51.052;9.850;2023-03-03T05:59:01;13.30;;;5.90;;
77322;SDS011;66384;51.052;9.850;2023-03-03T06:01:31;14.90;;;5.40;;
77322;SDS011;66384;51.052;9.850;2023-03-03T06:04:00;14.50;;;6.20;;
77322;SDS011;66384;51.052;9.850;2023-03-03T06:06:29;15.80;;;6.60;;
77322;SDS011;66384;51.052;9.850;2023-03-03T06:08:59;13.40;;;5.40;;
77322;SDS011;66384;51.052;9.850;2023-03-03T06:11:28;12.20;;;5.00;;
77322;SDS011;66384;51.052;9.850;2023-03-03T06:13:57;13.40;;;5.10;;
77322;SDS011;66384;51.052;9.850;2023-03-03T06:16:26;14.80;;;5.60;;
77322;SDS011;66384;51.052;9.850;2023-03-03T06:18:56;13.80;;;5.70;;
77322;SDS011;66384;51.052;9.850;2023-03-03T06:21:25;14.20;;;6.10;;
77322;SDS011;66384;51.052;9.850;2023-03-03T06:23:54;14.60;;;5.50;;
77322;SDS011;66384;51.052;9.850;2023-03-03T06:26:24;9.40;;;4.50;;
77322;SDS011;66384;51.052;9.850;2023-03-03T06:28:53;10.50;;;3.90;;
77322;SDS011;66384;51.052;9.850;2023-03-03T06:31:23;11.80;;;4.70;;
77322;SDS011;66384;51.052;9.850;2023-03-03T06:33:53;11.60;;;4.70;;
77322;SDS011;66384;51.052;9.850;2023-03-03T06:36:22;11.00;;;4.30;;
77322;SDS011;66384;51.052;9.850;2023-03-03T06:38:51;11.30;;;4.30;;
77322;SDS011;66384;51.052;9.850;2023-03-03T06:41:21;11.20;;;4.50;;
77322;SDS011;66384;51.052;9.850;2023-03-03T06:43:50;10.60;;;4.10;;
77322;SDS011;66384;51.052;9.850;2023-03-03T06:46:19;9.10;;;4.20;;
77322;SDS011;66384;51.052;9.850;2023-03-03T06:48:49;10.40;;;4.40;;
77322;SDS011;66384;51.052;9.850;2023-03-03T06:51:21;8.00;;;3.60;;
77322;SDS011;66384;51.052;9.850;2023-03-03T06:53:54;10.40;;;4.30;;
77322;SDS011;66384;51.052;9.850;2023-03-03T06:56:26;8.90;;;4.20;;
77322;SDS011;66384;51.052;9.850;2023-03-03T06:58:56;10.40;;;4.50;;
77322;SDS011;66384;51.052;9.850;2023-03-03T07:01:34;12.70;;;5.10;;
77322;SDS011;66384;51.052;9.850;2023-03-03T07:04:06;12.10;;;4.70;;
77322;SDS011;66384;51.052;9.850;2023-03-03T07:06:40;9.00;;;4.40;;
77322;SDS011;66384;51.052;9.850;2023-03-03T07:09:09;9.80;;;4.00;;
77322;SDS011;66384;51.052;9.850;2023-03-03T07:11:46;11.00;;;5.20;;
77322;SDS011;66384;51.052;9.850;2023-03-03T07:14:17;11.30;;;4.00;;
77322;SDS011;66384;51.052;9.850;2023-03-03T07:16:47;11.90;;;5.40;;
77322;SDS011;66384;51.052;9.850;2023-03-03T07:19:25;12.90;;;5.50;;
77322;SDS011;66384;51.052;9.850;2023-03-03T07:22:00;7.10;;;3.40;;
77322;SDS011;66384;51.052;9.850;2023-03-03T07:24:41;14.20;;;6.10;;
77322;SDS011;66384;51.052;9.850;2023-03-03T07:27:13;9.80;;;4.60;;
77322;SDS011;66384;51.052;9.850;2023-03-03T07:29:49;12.10;;;4.90;;
77322;SDS011;66384;51.052;9.850;2023-03-03T07:32:25;12.40;;;5.30;;
77322;SDS011;66384;51.052;9.850;2023-03-03T07:35:03;10.20;;;4.60;;
77322;SDS011;66384;51.052;9.850;2023-03-03T07:37:49;10.70;;;4.40;;
77322;SDS011;66384;51.052;9.850;2023-03-03T07:40:26;12.80;;;5.60;;
77322;SDS011;66384;51.052;9.850;2023-03-03T07:43:11;10.20;;;4.60;;
77322;SDS011;66384;51.052;9.850;2023-03-03T07:45:59;15.20;;;7.10;;
77322;SDS011;66384;51.052;9.850;2023-03-03T07:48:41;11.00;;;5.90;;
77322;SDS011;66384;51.052;9.850;2023-03-03T07:51:12;11.70;;;5.50;;
77322;SDS011;66384;51.052;9.850;2023-03-03T07:53:48;8.40;;;4.20;;
77322;SDS011;66384;51.052;9.850;2023-03-03T07:56:21;13.50;;;6.70;;
77322;SDS011;66384;51.052;9.850;2023-03-03T07:58:56;9.30;;;4.40;;
77322;SDS011;66384;51.052;9.850;2023-03-03T08:04:19;9.10;;;4.40;;
77322;SDS011;66384;51.052;9.850;2023-03-03T08:06:52;6.30;;;3.70;;
77322;SDS011;66384;51.052;9.850;2023-03-03T08:12:29;7.80;;;3.70;;
77322;SDS011;66384;51.052;9.850;2023-03-03T08:15:24;8.90;;;4.30;;
77322;SDS011;66384;51.052;9.850;2023-03-03T08:17:57;7.40;;;3.30;;
77322;SDS011;66384;51.052;9.850;2023-03-03T08:23:21;10.20;;;4.30;;
77322;SDS011;66384;51.052;9.850;2023-03-03T08:25:50;11.30;;;4.90;;
77322;SDS011;66384;51.052;9.850;2023-03-03T08:28:20;14.40;;;5.20;;
77322;SDS011;66384;51.052;9.850;2023-03-03T08:30:49;10.30;;;5.00;;
77322;SDS011;66384;51.052;9.850;2023-03-03T08:33:19;7.90;;;4.30;;
77322;SDS011;66384;51.052;9.850;2023-03-03T08:35:49;14.70;;;7.10;;
77322;SDS011;66384;51.052;9.850;2023-03-03T08:38:19;13.80;;;6.80;;
77322;SDS011;66384;51.052;9.850;2023-03-03T08:40:49;12.20;;;5.40;;
77322;SDS011;66384;51.052;9.850;2023-03-03T08:43:18;10.20;;;5.90;;
77322;SDS011;66384;51.052;9.850;2023-03-03T08:45:48;10.70;;;4.90;;
77322;SDS011;66384;51.052;9.850;2023-03-03T08:48:19;8.40;;;4.60;;
77322;SDS011;66384;51.052;9.850;2023-03-03T08:50:48;8.20;;;4.80;;
77322;SDS011;66384;51.052;9.850;2023-03-03T08:53:18;10.50;;;4.70;;
77322;SDS011;66384;51.052;9.850;2023-03-03T08:55:49;6.80;;;3.40;;
77322;SDS011;66384;51.052;9.850;2023-03-03T08:58:18;10.10;;;4.00;;
77322;SDS011;66384;51.052;9.850;2023-03-03T09:00:48;10.30;;;4.10;;
77322;SDS011;66384;51.052;9.850;2023-03-03T09:03:18;8.50;;;4.40;;
77322;SDS011;66384;51.052;9.850;2023-03-03T09:05:47;10.60;;;3.90;;
77322;SDS011;66384;51.052;9.850;2023-03-03T09:08:16;8.60;;;4.90;;
77322;SDS011;66384;51.052;9.850;2023-03-03T09:10:45;9.20;;;4.20;;
77322;SDS011;66384;51.052;9.850;2023-03-03T09:13:15;7.00;;;3.40;;
77322;SDS011;66384;51.052;9.850;2023-03-03T09:15:45;7.90;;;3.60;;
77322;SDS011;66384;51.052;9.850;2023-03-03T09:18:17;8.40;;;3.80;;
77322;SDS011;66384;51.052;9.850;2023-03-03T09:20:48;9.10;;;5.10;;
77322;SDS011;66384;51.052;9.850;2023-03-03T09:28:57;8.60;;;4.20;;
77322;SDS011;66384;51.052;9.850;2023-03-03T09:31:37;8.40;;;3.80;;
77322;SDS011;66384;51.052;9.850;2023-03-03T09:34:17;8.60;;;4.10;;
77322;SDS011;66384;51.052;9.850;2023-03-03T09:36:49;9.90;;;4.30;;
77322;SDS011;66384;51.052;9.850;2023-03-03T09:39:20;13.30;;;7.00;;
77322;SDS011;66384;51.052;9.850;2023-03-03T09:42:03;9.60;;;4.80;;
77322;SDS011;66384;51.052;9.850;2023-03-03T09:50:59;9.70;;;4.60;;
77322;SDS011;66384;51.052;9.850;2023-03-03T09:53:45;14.10;;;6.00;;
77322;SDS011;66384;51.052;9.850;2023-03-03T09:56:29;12.30;;;6.50;;
77322;SDS011;66384;51.052;9.850;2023-03-03T09:59:08;10.20;;;5.00;;
77322;SDS011;66384;51.052;9.850;2023-03-03T10:01:52;7.80;;;4.30;;
77322;SDS011;66384;51.052;9.850;2023-03-03T10:04:49;10.20;;;5.10;;
77322;SDS011;66384;51.052;9.850;2023-03-03T10:07:37;8.10;;;3.90;;
77322;SDS011;66384;51.052;9.850;2023-03-03T10:10:16;8.20;;;3.90;;
77322;SDS011;66384;51.052;9.850;2023-03-03T10:12:57;8.80;;;4.30;;
77322;SDS011;66384;51.052;9.850;2023-03-03T10:15:41;9.40;;;4.40;;
77322;SDS011;66384;51.052;9.850;2023-03-03T10:18:20;10.90;;;5.00;;
77322;SDS011;66384;51.052;9.850;2023-03-03T10:21:01;8.30;;;4.40;;
77322;SDS011;66384;51.052;9.850;2023-03-03T10:23:40;9.80;;;5.20;;
77322;SDS011;66384;51.052;9.850;2023-03-03T10:26:22;11.80;;;6.50;;
77322;SDS011;66384;51.052;9.850;2023-03-03T10:29:08;12.40;;;6.40;;
77322;SDS011;66384;51.052;9.850;2023-03-03T10:31:48;9.70;;;4.70;;
77322;SDS011;66384;51.052;9.850;2023-03-03T10:37:27;8.20;;;4.30;;
77322;SDS011;66384;51.052;9.850;2023-03-03T10:40:10;7.70;;;4.30;;
77322;SDS011;66384;51.052;9.850;2023-03-03T10:42:52;13.10;;;6.20;;
77322;SDS011;66384;51.052;9.850;2023-03-03T10:45:47;11.10;;;5.40;;
77322;SDS011;66384;51.052;9.850;2023-03-03T10:48:33;10.10;;;4.80;;
77322;SDS011;66384;51.052;9.850;2023-03-03T10:51:17;7.80;;;4.00;;
77322;SDS011;66384;51.052;9.850;2023-03-03T10:53:56;9.50;;;4.50;;
77322;SDS011;66384;51.052;9.850;2023-03-03T10:56:38;9.90;;;4.90;;
77322;SDS011;66384;51.052;9.850;2023-03-03T10:59:22;8.30;;;4.50;;
77322;SDS011;66384;51.052;9.850;2023-03-03T11:02:02;8.90;;;4.30;;
77322;SDS011;66384;51.052;9.850;2023-03-03T11:04:41;7.60;;;4.00;;
77322;SDS011;66384;51.052;9.850;2023-03-03T11:07:19;10.40;;;4.50;;
77322;SDS011;66384;51.052;9.850;2023-03-03T11:09:55;10.10;;;4.80;;
77322;SDS011;66384;51.052;9.850;2023-03-03T11:12:40;10.40;;;5.10;;
77322;SDS011;66384;51.052;9.850;2023-03-03T11:15:38;9.20;;;4.60;;
77322;SDS011;66384;51.052;9.850;2023-03-03T11:21:15;6.90;;;4.20;;
77322;SDS011;66384;51.052;9.850;2023-03-03T11:23:59;7.80;;;4.40;;
77322;SDS011;66384;51.052;9.850;2023-03-03T11:26:43;9.60;;;4.70;;
77322;SDS011;66384;51.052;9.850;2023-03-03T11:29:26;8.80;;;4.20;;
77322;SDS011;66384;51.052;9.850;2023-03-03T11:32:07;9.00;;;4.20;;
77322;SDS011;66384;51.052;9.850;2023-03-03T11:34:51;8.60;;;4.90;;
77322;SDS011;66384;51.052;9.850;2023-03-03T11:37:27;8.30;;;4.30;;
77322;SDS011;66384;51.052;9.850;2023-03-03T11:40:06;9.80;;;4.90;;
77322;SDS011;66384;51.052;9.850;2023-03-03T11:42:46;9.20;;;5.20;;
77322;SDS011;66384;51.052;9.850;2023-03-03T11:45:28;10.40;;;5.30;;
77322;SDS011;66384;51.052;9.850;2023-03-03T11:48:05;13.30;;;5.80;;
77322;SDS011;66384;51.052;9.850;2023-03-03T11:50:42;8.60;;;4.90;;
77322;SDS011;66384;51.052;9.850;2023-03-03T11:53:23;10.20;;;5.70;;
77322;SDS011;66384;51.052;9.850;2023-03-03T11:56:05;10.20;;;6.10;;
77322;SDS011;66384;51.052;9.850;2023-03-03T11:58:47;9.00;;;4.10;;
77322;SDS011;66384;51.052;9.850;2023-03-03T12:01:27;8.20;;;4.90;;
77322;SDS011;66384;51.052;9.850;2023-03-03T12:04:02;8.30;;;4.70;;
77322;SDS011;66384;51.052;9.850;2023-03-03T12:06:38;7.90;;;4.30;;
77322;SDS011;66384;51.052;9.850;2023-03-03T12:09:19;10.60;;;5.00;;
77322;SDS011;66384;51.052;9.850;2023-03-03T12:12:00;9.50;;;5.40;;
77322;SDS011;66384;51.052;9.850;2023-03-03T12:14:38;8.30;;;4.30;;
77322;SDS011;66384;51.052;9.850;2023-03-03T12:17:27;9.70;;;4.60;;
77322;SDS011;66384;51.052;9.850;2023-03-03T12:20:08;8.90;;;4.60;;
77322;SDS011;66384;51.052;9.850;2023-03-03T12:22:46;8.80;;;4.90;;
77322;SDS011;66384;51.052;9.850;2023-03-03T12:25:29;7.90;;;4.60;;
77322;SDS011;66384;51.052;9.850;2023-03-03T12:28:05;8.40;;;4.10;;
77322;SDS011;66384;51.052;9.850;2023-03-03T12:30:43;7.50;;;4.20;;
77322;SDS011;66384;51.052;9.850;2023-03-03T12:33:48;10.00;;;4.50;;
77322;SDS011;66384;51.052;9.850;2023-03-03T12:36:27;7.40;;;4.20;;
77322;SDS011;66384;51.052;9.850;2023-03-03T12:39:11;11.40;;;5.10;;
77322;SDS011;66384;51.052;9.850;2023-03-03T12:41:51;9.30;;;4.90;;
77322;SDS011;66384;51.052;9.850;2023-03-03T12:44:28;8.80;;;5.10;;
77322;SDS011;66384;51.052;9.850;2023-03-03T12:47:08;8.50;;;3.40;;
77322;SDS011;66384;51.052;9.850;2023-03-03T12:49:48;7.20;;;3.90;;
77322;SDS011;66384;51.052;9.850;2023-03-03T12:52:27;7.10;;;4.10;;
77322;SDS011;66384;51.052;9.850;2023-03-03T12:55:12;6.20;;;3.50;;
77322;SDS011;66384;51.052;9.850;2023-03-03T12:57:48;7.50;;;3.80;;
77322;SDS011;66384;51.052;9.850;2023-03-03T13:00:29;6.80;;;3.60;;
77322;SDS011;66384;51.052;9.850;2023-03-03T13:03:10;6.90;;;3.10;;
77322;SDS011;66384;51.052;9.850;2023-03-03T13:05:50;7.30;;;4.20;;
77322;SDS011;66384;51.052;9.850;2023-03-03T13:08:28;6.30;;;3.40;;
77322;SDS011;66384;51.052;9.850;2023-03-03T13:11:09;7.90;;;3.80;;
77322;SDS011;66384;51.052;9.850;2023-03-03T13:13:56;6.80;;;4.00;;
77322;SDS011;66384;51.052;9.850;2023-03-03T13:16:32;8.00;;;4.40;;
77322;SDS011;66384;51.052;9.850;2023-03-03T13:19:07;5.70;;;3.40;;
77322;SDS011;66384;51.052;9.850;2023-03-03T13:21:41;6.50;;;3.40;;
77322;SDS011;66384;51.052;9.850;2023-03-03T13:24:16;8.00;;;4.40;;
77322;SDS011;66384;51.052;9.850;2023-03-03T13:26:51;8.00;;;4.10;;
77322;SDS011;66384;51.052;9.850;2023-03-03T13:29:25;6.70;;;3.90;;
77322;SDS011;66384;51.052;9.850;2023-03-03T13:31:59;7.10;;;4.10;;
77322;SDS011;66384;51.052;9.850;2023-03-03T13:34:36;7.20;;;4.00;;
77322;SDS011;66384;51.052;9.850;2023-03-03T13:37:13;7.60;;;4.30;;
77322;SDS011;66384;51.052;9.850;2023-03-03T13:39:51;7.50;;;4.10;;
77322;SDS011;66384;51.052;9.850;2023-03-03T13:42:25;7.40;;;4.00;;
77322;SDS011;66384;51.052;9.850;2023-03-03T13:45:00;6.30;;;3.70;;
77322;SDS011;66384;51.052;9.850;2023-03-03T13:47:35;8.60;;;4.00;;
77322;SDS011;66384;51.052;9.850;2023-03-03T13:50:13;6.80;;;4.20;;
77322;SDS011;66384;51.052;9.850;2023-03-03T13:52:51;6.60;;;3.30;;
77322;SDS011;66384;51.052;9.850;2023-03-03T13:55:36;7.60;;;4.40;;
77322;SDS011;66384;51.052;9.850;2023-03-03T13:58:12;7.60;;;4.20;;
77322;SDS011;66384;51.052;9.850;2023-03-03T14:00:53;6.50;;;3.60;;
77322;SDS011;66384;51.052;9.850;2023-03-03T14:03:32;7.00;;;4.00;;
77322;SDS011;66384;51.052;9.850;2023-03-03T14:06:14;6.20;;;3.70;;
77322;SDS011;66384;51.052;9.850;2023-03-03T14:08:57;6.90;;;3.90;;
77322;SDS011;66384;51.052;9.850;2023-03-03T14:11:36;6.30;;;4.20;;
77322;SDS011;66384;51.052;9.850;2023-03-03T14:16:48;6.80;;;4.70;;
77322;SDS011;66384;51.052;9.850;2023-03-03T14:19:23;8.10;;;4.80;;
77322;SDS011;66384;51.052;9.850;2023-03-03T14:22:14;7.10;;;4.10;;
77322;SDS011;66384;51.052;9.850;2023-03-03T14:24:55;7.20;;;4.30;;
77322;SDS011;66384;51.052;9.850;2023-03-03T14:27:32;7.90;;;4.40;;
77322;SDS011;66384;51.052;9.850;2023-03-03T14:33:00;8.60;;;4.40;;
77322;SDS011;66384;51.052;9.850;2023-03-03T14:35:42;8.50;;;4.40;;
77322;SDS011;66384;51.052;9.850;2023-03-03T14:38:17;9.10;;;4.40;;
77322;SDS011;66384;51.052;9.850;2023-03-03T14:41:02;6.40;;;4.00;;
77322;SDS011;66384;51.052;9.850;2023-03-03T14:43:39;6.70;;;4.10;;
77322;SDS011;66384;51.052;9.850;2023-03-03T14:46:29;6.70;;;3.90;;
77322;SDS011;66384;51.052;9.850;2023-03-03T14:49:05;5.70;;;3.80;;
77322;SDS011;66384;51.052;9.850;2023-03-03T14:51:41;6.90;;;4.40;;
77322;SDS011;66384;51.052;9.850;2023-03-03T14:54:18;5.90;;;3.50;;
77322;SDS011;66384;51.052;9.850;2023-03-03T14:57:00;5.20;;;3.40;;
77322;SDS011;66384;51.052;9.850;2023-03-03T14:59:33;6.00;;;3.90;;
77322;SDS011;66384;51.052;9.850;2023-03-03T15:02:07;7.10;;;3.40;;
77322;SDS011;66384;51.052;9.850;2023-03-03T15:05:07;6.60;;;3.50;;
77322;SDS011;66384;51.052;9.850;2023-03-03T15:07:44;6.30;;;4.00;;
77322;SDS011;66384;51.052;9.850;2023-03-03T15:10:26;6.50;;;3.50;;
77322;SDS011;66384;51.052;9.850;2023-03-03T15:12:57;7.40;;;4.00;;
77322;SDS011;66384;51.052;9.850;2023-03-03T15:15:36;6.40;;;3.60;;
77322;SDS011;66384;51.052;9.850;2023-03-03T15:18:18;6.10;;;3.80;;
77322;SDS011;66384;51.052;9.850;2023-03-03T15:20:49;6.60;;;4.00;;
77322;SDS011;66384;51.052;9.850;2023-03-03T15:23:38;7.10;;;4.10;;
77322;SDS011;66384;51.052;9.850;2023-03-03T15:26:19;6.50;;;3.80;;
77322;SDS011;66384;51.052;9.850;2023-03-03T15:28:58;6.10;;;3.80;;
77322;SDS011;66384;51.052;9.850;2023-03-03T15:31:37;5.70;;;3.80;;
77322;SDS011;66384;51.052;9.850;2023-03-03T15:34:19;5.90;;;3.90;;
77322;SDS011;66384;51.052;9.850;2023-03-03T15:36:54;5.20;;;3.40;;
77322;SDS011;66384;51.052;9.850;2023-03-03T15:39:34;5.80;;;3.20;;
77322;SDS011;66384;51.052;9.850;2023-03-03T15:42:14;8.30;;;5.30;;
77322;SDS011;66384;51.052;9.850;2023-03-03T15:44:54;8.30;;;4.10;;
77322;SDS011;66384;51.052;9.850;2023-03-03T15:47:36;8.50;;;4.20;;
77322;SDS011;66384;51.052;9.850;2023-03-03T15:50:25;7.30;;;4.50;;
77322;SDS011;66384;51.052;9.850;2023-03-03T15:53:04;9.90;;;5.10;;
77322;SDS011;66384;51.052;9.850;2023-03-03T15:55:49;7.40;;;4.50;;
77322;SDS011;66384;51.052;9.850;2023-03-03T15:58:35;6.80;;;4.40;;
77322;SDS011;66384;51.052;9.850;2023-03-03T16:01:21;5.90;;;3.70;;
77322;SDS011;66384;51.052;9.850;2023-03-03T16:03:55;10.20;;;5.80;;
77322;SDS011;66384;51.052;9.850;2023-03-03T16:06:31;8.50;;;4.90;;
77322;SDS011;66384;51.052;9.850;2023-03-03T16:09:11;7.20;;;4.30;;
77322;SDS011;66384;51.052;9.850;2023-03-03T16:11:53;6.30;;;3.70;;